sensor_id;sensor_type;location;lat;lon;timestamp;P1;durP1;ratioP1;P2;durP2;ratioP2
14799;SDS011;7491;57.750;11.970;2023-05-29T00:02:00;20.17;;;4.47;;
14799;SDS011;7491;57.750;11.970;2023-05-29T00:04:27;16.77;;;3.10;;
14799;SDS011;7491;57.750;11.970;2023-05-29T00:07:00;15.30;;;3.58;;
14799;SDS011;7491;57.750;11.970;2023-05-29T00:09:27;19.02;;;3.53;;
14799;SDS011;7491;57.750;11.970;2023-05-29T00:11:59;13.48;;;3.22;;
14799;SDS011;7491;57.750;11.970;2023-05-29T00:14:26;13.75;;;3.85;;
14799;SDS011;7491;57.750;11.970;2023-05-29T00:16:53;12.55;;;3.38;;
14799;SDS011;7491;57.750;11.970;2023-05-29T00:19:21;16.10;;;3.35;;
14799;SDS011;7491;57.750;11.970;2023-05-29T00:21:50;13.13;;;3.17;;
14799;SDS011;7491;57.750;11.970;2023-05-29T00:24:17;20.33;;;3.90;;
14799;SDS011;7491;57.750;11.970;2023-05-29T00:26:48;20.55;;;3.25;;
14799;SDS011;7491;57.750;11.970;2023-05-29T00:29:49;13.57;;;4.10;;
14799;SDS011;7491;57.750;11.970;2023-05-29T00:32:21;14.40;;;3.55;;
14799;SDS011;7491;57.750;11.970;2023-05-29T00:51:31;9.75;;;3.03;;
14799;SDS011;7491;57.750;11.970;2023-05-29T01:30:19;10.05;;;2.92;;
14799;SDS011;7491;57.750;11.970;2023-05-29T01:33:24;13.00;;;2.88;;
14799;SDS011;7491;57.750;11.970;2023-05-29T01:36:04;15.57;;;3.15;;
14799;SDS011;7491;57.750;11.970;2023-05-29T01:39:02;14.85;;;2.88;;
14799;SDS011;7491;57.750;11.970;2023-05-29T01:42:07;13.65;;;2.90;;
14799;SDS011;7491;57.750;11.970;2023-05-29T01:45:15;10.85;;;3.17;;
14799;SDS011;7491;57.750;11.970;2023-05-29T01:47:46;12.30;;;3.30;;
14799;SDS011;7491;57.750;11.970;2023-05-29T01:50:20;14.23;;;3.13;;
14799;SDS011;7491;57.750;11.970;2023-05-29T01:52:51;9.32;;;3.03;;
14799;SDS011;7491;57.750;11.970;2023-05-29T01:55:18;9.15;;;2.90;;
14799;SDS011;7491;57.750;11.970;2023-05-29T01:57:48;8.23;;;2.55;;
14799;SDS011;7491;57.750;11.970;2023-05-29T02:00:17;8.88;;;2.70;;
14799;SDS011;7491;57.750;11.970;2023-05-29T02:02:46;8.18;;;2.78;;
14799;SDS011;7491;57.750;11.970;2023-05-29T02:05:12;13.13;;;3.05;;
14799;SDS011;7491;57.750;11.970;2023-05-29T02:07:52;8.85;;;3.22;;
14799;SDS011;7491;57.750;11.970;2023-05-29T02:10:31;9.02;;;2.70;;
14799;SDS011;7491;57.750;11.970;2023-05-29T02:12:58;12.35;;;2.75;;
14799;SDS011;7491;57.750;11.970;2023-05-29T02:15:27;7.78;;;2.53;;
14799;SDS011;7491;57.750;11.970;2023-05-29T02:17:55;13.00;;;2.78;;
14799;SDS011;7491;57.750;11.970;2023-05-29T02:20:23;6.40;;;2.10;;
14799;SDS011;7491;57.750;11.970;2023-05-29T02:22:50;7.80;;;2.67;;
14799;SDS011;7491;57.750;11.970;2023-05-29T02:25:17;10.93;;;2.38;;
14799;SDS011;7491;57.750;11.970;2023-05-29T02:27:43;7.60;;;2.60;;
14799;SDS011;7491;57.750;11.970;2023-05-29T02:30:10;10.98;;;2.80;;
14799;SDS011;7491;57.750;11.970;2023-05-29T02:32:37;10.35;;;2.55;;
14799;SDS011;7491;57.750;11.970;2023-05-29T02:35:07;8.50;;;2.33;;
14799;SDS011;7491;57.750;11.970;2023-05-29T02:37:34;6.55;;;3.03;;
14799;SDS011;7491;57.750;11.970;2023-05-29T02:40:01;11.52;;;2.88;;
14799;SDS011;7491;57.750;11.970;2023-05-29T02:42:27;8.48;;;2.03;;
14799;SDS011;7491;57.750;11.970;2023-05-29T02:44:57;6.30;;;2.30;;
14799;SDS011;7491;57.750;11.970;2023-05-29T02:47:23;5.78;;;2.15;;
14799;SDS011;7491;57.750;11.970;2023-05-29T02:49:50;13.00;;;2.42;;
14799;SDS011;7491;57.750;11.970;2023-05-29T02:52:18;10.20;;;2.83;;
14799;SDS011;7491;57.750;11.970;2023-05-29T02:54:45;7.97;;;2.55;;
14799;SDS011;7491;57.750;11.970;2023-05-29T02:57:12;9.48;;;2.50;;
14799;SDS011;7491;57.750;11.970;2023-05-29T02:59:38;6.72;;;1.88;;
14799;SDS011;7491;57.750;11.970;2023-05-29T03:02:05;4.97;;;2.15;;
14799;SDS011;7491;57.750;11.970;2023-05-29T03:04:34;9.40;;;2.42;;
14799;SDS011;7491;57.750;11.970;2023-05-29T03:07:00;7.18;;;2.33;;
14799;SDS011;7491;57.750;11.970;2023-05-29T03:09:28;8.05;;;2.17;;
14799;SDS011;7491;57.750;11.970;2023-05-29T03:11:55;7.90;;;2.53;;
14799;SDS011;7491;57.750;11.970;2023-05-29T03:14:22;8.90;;;2.63;;
14799;SDS011;7491;57.750;11.970;2023-05-29T03:16:49;8.55;;;2.13;;
14799;SDS011;7491;57.750;11.970;2023-05-29T03:19:15;8.27;;;2.13;;
14799;SDS011;7491;57.750;11.970;2023-05-29T03:21:42;7.07;;;2.10;;
14799;SDS011;7491;57.750;11.970;2023-05-29T03:24:10;5.18;;;2.15;;
14799;SDS011;7491;57.750;11.970;2023-05-29T03:26:39;7.95;;;2.25;;
14799;SDS011;7491;57.750;11.970;2023-05-29T03:29:06;7.03;;;2.53;;
14799;SDS011;7491;57.750;11.970;2023-05-29T03:31:33;9.27;;;2.22;;
14799;SDS011;7491;57.750;11.970;2023-05-29T03:34:00;5.18;;;2.20;;
14799;SDS011;7491;57.750;11.970;2023-05-29T03:36:27;9.40;;;2.20;;
14799;SDS011;7491;57.750;11.970;2023-05-29T03:38:53;4.45;;;2.05;;
14799;SDS011;7491;57.750;11.970;2023-05-29T03:41:20;12.88;;;2.60;;
14799;SDS011;7491;57.750;11.970;2023-05-29T03:43:48;5.70;;;2.17;;
14799;SDS011;7491;57.750;11.970;2023-05-29T03:46:15;9.38;;;2.40;;
14799;SDS011;7491;57.750;11.970;2023-05-29T03:48:48;8.07;;;2.40;;
14799;SDS011;7491;57.750;11.970;2023-05-29T03:51:43;5.47;;;2.00;;
14799;SDS011;7491;57.750;11.970;2023-05-29T03:54:10;7.80;;;2.25;;
14799;SDS011;7491;57.750;11.970;2023-05-29T03:56:40;8.35;;;2.35;;
14799;SDS011;7491;57.750;11.970;2023-05-29T03:59:08;8.90;;;2.78;;
14799;SDS011;7491;57.750;11.970;2023-05-29T04:02:05;9.50;;;2.35;;
14799;SDS011;7491;57.750;11.970;2023-05-29T04:04:38;6.97;;;2.42;;
14799;SDS011;7491;57.750;11.970;2023-05-29T04:07:08;5.05;;;2.22;;
14799;SDS011;7491;57.750;11.970;2023-05-29T04:09:36;10.95;;;2.55;;
14799;SDS011;7491;57.750;11.970;2023-05-29T04:12:03;7.45;;;2.53;;
14799;SDS011;7491;57.750;11.970;2023-05-29T04:14:38;8.48;;;2.50;;
14799;SDS011;7491;57.750;11.970;2023-05-29T04:17:23;9.23;;;3.30;;
14799;SDS011;7491;57.750;11.970;2023-05-29T04:20:10;7.57;;;2.53;;
14799;SDS011;7491;57.750;11.970;2023-05-29T04:24:40;7.03;;;2.20;;
14799;SDS011;7491;57.750;11.970;2023-05-29T05:09:15;8.10;;;1.50;;
14799;SDS011;7491;57.750;11.970;2023-05-29T05:11:45;2.67;;;1.38;;
14799;SDS011;7491;57.750;11.970;2023-05-29T05:14:11;5.88;;;1.30;;
14799;SDS011;7491;57.750;11.970;2023-05-29T05:16:38;6.93;;;1.38;;
14799;SDS011;7491;57.750;11.970;2023-05-29T05:19:05;3.50;;;1.30;;
14799;SDS011;7491;57.750;11.970;2023-05-29T05:21:32;1.65;;;0.90;;
14799;SDS011;7491;57.750;11.970;2023-05-29T05:23:59;1.90;;;1.08;;
14799;SDS011;7491;57.750;11.970;2023-05-29T05:26:27;2.08;;;1.05;;
14799;SDS011;7491;57.750;11.970;2023-05-29T05:28:54;1.30;;;1.00;;
14799;SDS011;7491;57.750;11.970;2023-05-29T05:31:21;4.65;;;1.05;;
14799;SDS011;7491;57.750;11.970;2023-05-29T05:33:47;3.55;;;1.30;;
14799;SDS011;7491;57.750;11.970;2023-05-29T05:36:14;2.53;;;1.13;;
14799;SDS011;7491;57.750;11.970;2023-05-29T05:38:41;1.45;;;1.27;;
14799;SDS011;7491;57.750;11.970;2023-05-29T05:41:08;3.30;;;1.30;;
14799;SDS011;7491;57.750;11.970;2023-05-29T05:43:37;2.33;;;1.20;;
14799;SDS011;7491;57.750;11.970;2023-05-29T05:46:05;2.85;;;1.20;;
14799;SDS011;7491;57.750;11.970;2023-05-29T05:48:31;2.38;;;0.95;;
14799;SDS011;7491;57.750;11.970;2023-05-29T05:50:58;4.90;;;1.20;;
14799;SDS011;7491;57.750;11.970;2023-05-29T05:53:25;2.72;;;1.33;;
14799;SDS011;7491;57.750;11.970;2023-05-29T05:55:52;0.85;;;0.82;;
14799;SDS011;7491;57.750;11.970;2023-05-29T05:58:19;1.48;;;1.10;;
14799;SDS011;7491;57.750;11.970;2023-05-29T06:00:47;2.20;;;1.10;;
14799;SDS011;7491;57.750;11.970;2023-05-29T06:03:17;1.88;;;0.88;;
14799;SDS011;7491;57.750;11.970;2023-05-29T06:05:44;1.80;;;0.90;;
14799;SDS011;7491;57.750;11.970;2023-05-29T06:08:12;4.05;;;1.02;;
14799;SDS011;7491;57.750;11.970;2023-05-29T06:10:40;2.35;;;1.10;;
14799;SDS011;7491;57.750;11.970;2023-05-29T06:13:07;1.95;;;1.15;;
14799;SDS011;7491;57.750;11.970;2023-05-29T06:15:33;1.02;;;0.90;;
14799;SDS011;7491;57.750;11.970;2023-05-29T06:18:02;1.73;;;0.95;;
14799;SDS011;7491;57.750;11.970;2023-05-29T06:20:30;2.72;;;1.30;;
14799;SDS011;7491;57.750;11.970;2023-05-29T06:22:59;2.40;;;1.33;;
14799;SDS011;7491;57.750;11.970;2023-05-29T06:25:26;2.45;;;1.15;;
14799;SDS011;7491;57.750;11.970;2023-05-29T06:27:58;1.92;;;1.15;;
14799;SDS011;7491;57.750;11.970;2023-05-29T06:30:25;1.65;;;0.88;;
14799;SDS011;7491;57.750;11.970;2023-05-29T06:32:52;2.05;;;0.73;;
14799;SDS011;7491;57.750;11.970;2023-05-29T06:35:20;0.90;;;0.80;;
14799;SDS011;7491;57.750;11.970;2023-05-29T06:37:47;1.65;;;0.90;;
14799;SDS011;7491;57.750;11.970;2023-05-29T06:40:13;0.90;;;0.88;;
14799;SDS011;7491;57.750;11.970;2023-05-29T06:42:41;1.65;;;0.80;;
14799;SDS011;7491;57.750;11.970;2023-05-29T06:45:10;2.28;;;1.10;;
14799;SDS011;7491;57.750;11.970;2023-05-29T06:47:38;2.85;;;0.98;;
14799;SDS011;7491;57.750;11.970;2023-05-29T06:50:05;1.05;;;0.80;;
14799;SDS011;7491;57.750;11.970;2023-05-29T06:52:34;2.20;;;1.17;;
14799;SDS011;7491;57.750;11.970;2023-05-29T06:55:01;1.60;;;0.85;;
14799;SDS011;7491;57.750;11.970;2023-05-29T06:57:28;3.65;;;1.20;;
14799;SDS011;7491;57.750;11.970;2023-05-29T06:59:55;3.25;;;0.90;;
14799;SDS011;7491;57.750;11.970;2023-05-29T07:02:22;2.95;;;1.20;;
14799;SDS011;7491;57.750;11.970;2023-05-29T07:04:49;1.55;;;1.00;;
14799;SDS011;7491;57.750;11.970;2023-05-29T07:07:16;1.70;;;1.00;;
14799;SDS011;7491;57.750;11.970;2023-05-29T07:09:45;2.70;;;1.00;;
14799;SDS011;7491;57.750;11.970;2023-05-29T07:12:12;2.28;;;1.00;;
14799;SDS011;7491;57.750;11.970;2023-05-29T07:14:39;1.27;;;1.10;;
14799;SDS011;7491;57.750;11.970;2023-05-29T07:17:06;1.45;;;0.98;;
14799;SDS011;7491;57.750;11.970;2023-05-29T07:19:32;3.58;;;1.00;;
14799;SDS011;7491;57.750;11.970;2023-05-29T07:21:59;1.90;;;1.00;;
14799;SDS011;7491;57.750;11.970;2023-05-29T07:24:26;2.13;;;1.10;;
14799;SDS011;7491;57.750;11.970;2023-05-29T07:26:54;1.00;;;0.90;;
14799;SDS011;7491;57.750;11.970;2023-05-29T07:29:21;1.52;;;0.80;;
14799;SDS011;7491;57.750;11.970;2023-05-29T07:31:49;3.10;;;1.10;;
14799;SDS011;7491;57.750;11.970;2023-05-29T07:34:16;1.38;;;0.82;;
14799;SDS011;7491;57.750;11.970;2023-05-29T07:36:56;4.53;;;1.23;;
14799;SDS011;7491;57.750;11.970;2023-05-29T07:39:25;2.22;;;1.20;;
14799;SDS011;7491;57.750;11.970;2023-05-29T07:41:52;7.07;;;1.40;;
14799;SDS011;7491;57.750;11.970;2023-05-29T07:44:21;4.60;;;1.20;;
14799;SDS011;7491;57.750;11.970;2023-05-29T07:46:48;4.10;;;1.20;;
14799;SDS011;7491;57.750;11.970;2023-05-29T07:49:15;6.38;;;1.52;;
14799;SDS011;7491;57.750;11.970;2023-05-29T07:51:42;7.10;;;1.35;;
14799;SDS011;7491;57.750;11.970;2023-05-29T07:54:09;5.82;;;1.40;;
14799;SDS011;7491;57.750;11.970;2023-05-29T07:56:36;3.80;;;1.17;;
14799;SDS011;7491;57.750;11.970;2023-05-29T07:59:05;7.07;;;1.50;;
14799;SDS011;7491;57.750;11.970;2023-05-29T08:01:32;5.30;;;1.25;;
14799;SDS011;7491;57.750;11.970;2023-05-29T08:03:59;4.15;;;0.95;;
14799;SDS011;7491;57.750;11.970;2023-05-29T08:06:26;3.50;;;0.93;;
14799;SDS011;7491;57.750;11.970;2023-05-29T08:08:53;2.35;;;1.10;;
14799;SDS011;7491;57.750;11.970;2023-05-29T08:11:21;0.82;;;0.75;;
14799;SDS011;7491;57.750;11.970;2023-05-29T08:13:48;3.40;;;1.10;;
14799;SDS011;7491;57.750;11.970;2023-05-29T08:16:16;3.10;;;1.17;;
14799;SDS011;7491;57.750;11.970;2023-05-29T08:18:43;3.13;;;1.10;;
14799;SDS011;7491;57.750;11.970;2023-05-29T08:21:10;1.30;;;0.80;;
14799;SDS011;7491;57.750;11.970;2023-05-29T08:23:37;1.13;;;0.73;;
14799;SDS011;7491;57.750;11.970;2023-05-29T08:26:04;2.00;;;0.90;;
14799;SDS011;7491;57.750;11.970;2023-05-29T08:28:31;1.38;;;0.95;;
14799;SDS011;7491;57.750;11.970;2023-05-29T08:30:58;1.00;;;0.80;;
14799;SDS011;7491;57.750;11.970;2023-05-29T08:33:26;2.53;;;0.90;;
14799;SDS011;7491;57.750;11.970;2023-05-29T08:35:54;0.85;;;0.85;;
14799;SDS011;7491;57.750;11.970;2023-05-29T08:38:21;2.60;;;1.00;;
14799;SDS011;7491;57.750;11.970;2023-05-29T08:40:50;1.00;;;0.85;;
14799;SDS011;7491;57.750;11.970;2023-05-29T08:43:19;1.48;;;0.70;;
14799;SDS011;7491;57.750;11.970;2023-05-29T08:45:51;0.80;;;0.80;;
14799;SDS011;7491;57.750;11.970;2023-05-29T08:48:20;1.70;;;0.82;;
14799;SDS011;7491;57.750;11.970;2023-05-29T08:50:51;0.70;;;0.70;;
14799;SDS011;7491;57.750;11.970;2023-05-29T08:53:20;1.10;;;0.93;;
14799;SDS011;7491;57.750;11.970;2023-05-29T08:55:48;1.02;;;0.90;;
14799;SDS011;7491;57.750;11.970;2023-05-29T08:58:17;4.63;;;1.20;;
14799;SDS011;7491;57.750;11.970;2023-05-29T09:00:45;2.42;;;0.90;;
14799;SDS011;7491;57.750;11.970;2023-05-29T09:03:13;1.83;;;0.98;;
14799;SDS011;7491;57.750;11.970;2023-05-29T09:05:40;1.55;;;1.02;;
14799;SDS011;7491;57.750;11.970;2023-05-29T09:08:08;5.32;;;1.35;;
14799;SDS011;7491;57.750;11.970;2023-05-29T09:10:37;1.17;;;0.93;;
14799;SDS011;7491;57.750;11.970;2023-05-29T09:13:04;1.92;;;1.10;;
14799;SDS011;7491;57.750;11.970;2023-05-29T09:15:31;1.00;;;0.75;;
14799;SDS011;7491;57.750;11.970;2023-05-29T09:17:59;1.58;;;1.00;;
14799;SDS011;7491;57.750;11.970;2023-05-29T09:20:26;3.10;;;0.77;;
14799;SDS011;7491;57.750;11.970;2023-05-29T09:22:54;1.83;;;0.80;;
14799;SDS011;7491;57.750;11.970;2023-05-29T09:25:23;0.98;;;0.82;;
14799;SDS011;7491;57.750;11.970;2023-05-29T09:27:53;1.92;;;0.85;;
14799;SDS011;7491;57.750;11.970;2023-05-29T09:30:32;1.58;;;0.80;;
14799;SDS011;7491;57.750;11.970;2023-05-29T09:33:04;0.93;;;0.80;;
14799;SDS011;7491;57.750;11.970;2023-05-29T09:35:32;2.38;;;0.95;;
14799;SDS011;7491;57.750;11.970;2023-05-29T09:38:00;1.27;;;0.90;;
14799;SDS011;7491;57.750;11.970;2023-05-29T09:40:30;1.67;;;0.90;;
14799;SDS011;7491;57.750;11.970;2023-05-29T09:43:02;0.73;;;0.70;;
14799;SDS011;7491;57.750;11.970;2023-05-29T09:45:35;2.55;;;0.80;;
14799;SDS011;7491;57.750;11.970;2023-05-29T09:48:04;0.73;;;0.70;;
14799;SDS011;7491;57.750;11.970;2023-05-29T09:50:32;0.70;;;0.70;;
14799;SDS011;7491;57.750;11.970;2023-05-29T09:53:00;3.33;;;0.90;;
14799;SDS011;7491;57.750;11.970;2023-05-29T09:55:28;0.70;;;0.70;;
14799;SDS011;7491;57.750;11.970;2023-05-29T09:57:58;1.42;;;0.80;;
14799;SDS011;7491;57.750;11.970;2023-05-29T10:00:27;1.05;;;0.95;;
14799;SDS011;7491;57.750;11.970;2023-05-29T10:02:56;0.63;;;0.63;;
14799;SDS011;7491;57.750;11.970;2023-05-29T10:05:22;1.25;;;1.02;;
14799;SDS011;7491;57.750;11.970;2023-05-29T10:07:49;0.98;;;0.65;;
14799;SDS011;7491;57.750;11.970;2023-05-29T10:10:20;0.63;;;0.63;;
14799;SDS011;7491;57.750;11.970;2023-05-29T10:12:49;3.42;;;0.70;;
14799;SDS011;7491;57.750;11.970;2023-05-29T10:15:17;2.42;;;0.60;;
14799;SDS011;7491;57.750;11.970;2023-05-29T10:17:50;0.68;;;0.63;;
14799;SDS011;7491;57.750;11.970;2023-05-29T10:20:19;1.38;;;0.82;;
14799;SDS011;7491;57.750;11.970;2023-05-29T10:22:49;2.45;;;1.42;;
14799;SDS011;7491;57.750;11.970;2023-05-29T10:25:18;0.90;;;0.90;;
14799;SDS011;7491;57.750;11.970;2023-05-29T10:27:46;0.73;;;0.70;;
14799;SDS011;7491;57.750;11.970;2023-05-29T10:30:19;1.30;;;0.90;;
14799;SDS011;7491;57.750;11.970;2023-05-29T10:33:00;0.95;;;0.88;;
14799;SDS011;7491;57.750;11.970;2023-05-29T10:35:50;0.98;;;0.95;;
14799;SDS011;7491;57.750;11.970;2023-05-29T10:38:21;1.05;;;0.88;;
14799;SDS011;7491;57.750;11.970;2023-05-29T10:40:51;1.58;;;1.08;;
14799;SDS011;7491;57.750;11.970;2023-05-29T10:43:30;2.40;;;1.00;;
14799;SDS011;7491;57.750;11.970;2023-05-29T10:45:59;4.82;;;1.15;;
14799;SDS011;7491;57.750;11.970;2023-05-29T10:48:36;2.85;;;1.00;;
14799;SDS011;7491;57.750;11.970;2023-05-29T10:51:04;0.77;;;0.77;;
14799;SDS011;7491;57.750;11.970;2023-05-29T10:53:32;0.75;;;0.75;;
14799;SDS011;7491;57.750;11.970;2023-05-29T10:55:59;1.33;;;0.70;;
14799;SDS011;7491;57.750;11.970;2023-05-29T10:58:28;1.52;;;0.80;;
14799;SDS011;7491;57.750;11.970;2023-05-29T11:00:56;1.05;;;0.80;;
14799;SDS011;7491;57.750;11.970;2023-05-29T11:03:25;2.28;;;0.70;;
14799;SDS011;7491;57.750;11.970;2023-05-29T11:05:57;1.13;;;0.70;;
14799;SDS011;7491;57.750;11.970;2023-05-29T11:08:32;3.22;;;0.95;;
14799;SDS011;7491;57.750;11.970;2023-05-29T11:11:00;1.10;;;0.75;;
14799;SDS011;7491;57.750;11.970;2023-05-29T11:13:30;1.17;;;0.70;;
14799;SDS011;7491;57.750;11.970;2023-05-29T11:16:09;0.90;;;0.80;;
14799;SDS011;7491;57.750;11.970;2023-05-29T11:18:42;3.92;;;1.02;;
14799;SDS011;7491;57.750;11.970;2023-05-29T11:21:28;0.70;;;0.70;;
14799;SDS011;7491;57.750;11.970;2023-05-29T11:23:58;0.70;;;0.70;;
14799;SDS011;7491;57.750;11.970;2023-05-29T11:26:28;1.23;;;0.80;;
14799;SDS011;7491;57.750;11.970;2023-05-29T11:28:57;1.00;;;0.95;;
14799;SDS011;7491;57.750;11.970;2023-05-29T11:31:24;1.50;;;0.60;;
14799;SDS011;7491;57.750;11.970;2023-05-29T11:33:54;1.35;;;0.95;;
14799;SDS011;7491;57.750;11.970;2023-05-29T11:36:26;2.33;;;0.88;;
14799;SDS011;7491;57.750;11.970;2023-05-29T11:38:53;3.13;;;1.08;;
14799;SDS011;7491;57.750;11.970;2023-05-29T11:41:20;0.60;;;0.60;;
14799;SDS011;7491;57.750;11.970;2023-05-29T11:43:57;1.92;;;0.88;;
14799;SDS011;7491;57.750;11.970;2023-05-29T11:46:26;0.65;;;0.65;;
14799;SDS011;7491;57.750;11.970;2023-05-29T11:48:57;0.70;;;0.70;;
14799;SDS011;7491;57.750;11.970;2023-05-29T11:51:24;0.85;;;0.70;;
14799;SDS011;7491;57.750;11.970;2023-05-29T11:53:51;0.75;;;0.50;;
14799;SDS011;7491;57.750;11.970;2023-05-29T11:56:23;1.95;;;0.77;;
14799;SDS011;7491;57.750;11.970;2023-05-29T11:59:01;2.10;;;0.70;;
14799;SDS011;7491;57.750;11.970;2023-05-29T12:01:34;0.60;;;0.60;;
14799;SDS011;7491;57.750;11.970;2023-05-29T12:04:03;1.73;;;1.02;;
14799;SDS011;7491;57.750;11.970;2023-05-29T12:06:40;2.92;;;0.80;;
14799;SDS011;7491;57.750;11.970;2023-05-29T12:09:22;1.42;;;0.80;;
14799;SDS011;7491;57.750;11.970;2023-05-29T12:11:51;3.30;;;0.90;;
14799;SDS011;7491;57.750;11.970;2023-05-29T12:14:17;1.05;;;0.82;;
14799;SDS011;7491;57.750;11.970;2023-05-29T12:16:44;0.70;;;0.70;;
14799;SDS011;7491;57.750;11.970;2023-05-29T12:19:13;1.55;;;0.50;;
14799;SDS011;7491;57.750;11.970;2023-05-29T12:21:41;0.65;;;0.65;;
14799;SDS011;7491;57.750;11.970;2023-05-29T12:24:08;0.85;;;0.80;;
14799;SDS011;7491;57.750;11.970;2023-05-29T12:26:35;2.13;;;0.90;;
14799;SDS011;7491;57.750;11.970;2023-05-29T12:29:02;0.70;;;0.60;;
14799;SDS011;7491;57.750;11.970;2023-05-29T12:31:30;1.33;;;0.70;;
14799;SDS011;7491;57.750;11.970;2023-05-29T12:34:01;0.73;;;0.70;;
14799;SDS011;7491;57.750;11.970;2023-05-29T12:36:29;1.10;;;0.70;;
14799;SDS011;7491;57.750;11.970;2023-05-29T12:38:58;0.88;;;0.70;;
14799;SDS011;7491;57.750;11.970;2023-05-29T12:41:26;1.17;;;0.60;;
14799;SDS011;7491;57.750;11.970;2023-05-29T12:43:54;2.25;;;0.70;;
14799;SDS011;7491;57.750;11.970;2023-05-29T12:46:22;0.75;;;0.75;;
14799;SDS011;7491;57.750;11.970;2023-05-29T12:48:49;1.50;;;0.90;;
14799;SDS011;7491;57.750;11.970;2023-05-29T12:51:24;1.05;;;0.80;;
14799;SDS011;7491;57.750;11.970;2023-05-29T12:53:53;2.35;;;0.93;;
14799;SDS011;7491;57.750;11.970;2023-05-29T12:56:20;3.10;;;0.80;;
14799;SDS011;7491;57.750;11.970;2023-05-29T12:58:49;0.70;;;0.70;;
14799;SDS011;7491;57.750;11.970;2023-05-29T13:01:16;0.95;;;0.70;;
14799;SDS011;7491;57.750;11.970;2023-05-29T13:03:43;2.63;;;1.00;;
14799;SDS011;7491;57.750;11.970;2023-05-29T13:06:10;2.25;;;0.95;;
14799;SDS011;7491;57.750;11.970;2023-05-29T13:08:37;1.45;;;0.80;;
14799;SDS011;7491;57.750;11.970;2023-05-29T13:11:05;1.63;;;0.70;;
14799;SDS011;7491;57.750;11.970;2023-05-29T13:13:32;1.52;;;0.90;;
14799;SDS011;7491;57.750;11.970;2023-05-29T13:15:59;1.95;;;0.77;;
14799;SDS011;7491;57.750;11.970;2023-05-29T13:18:28;1.92;;;1.00;;
14799;SDS011;7491;57.750;11.970;2023-05-29T13:20:56;6.03;;;0.95;;
14799;SDS011;7491;57.750;11.970;2023-05-29T13:23:28;2.13;;;0.80;;
14799;SDS011;7491;57.750;11.970;2023-05-29T13:25:55;0.93;;;0.80;;
14799;SDS011;7491;57.750;11.970;2023-05-29T13:28:23;1.67;;;0.95;;
14799;SDS011;7491;57.750;11.970;2023-05-29T13:30:50;1.33;;;1.08;;
14799;SDS011;7491;57.750;11.970;2023-05-29T13:33:17;3.05;;;1.15;;
14799;SDS011;7491;57.750;11.970;2023-05-29T13:35:44;2.83;;;1.00;;
14799;SDS011;7491;57.750;11.970;2023-05-29T13:38:12;1.00;;;0.93;;
14799;SDS011;7491;57.750;11.970;2023-05-29T13:40:39;1.98;;;0.70;;
14799;SDS011;7491;57.750;11.970;2023-05-29T13:43:06;1.48;;;0.80;;
14799;SDS011;7491;57.750;11.970;2023-05-29T13:45:34;1.92;;;1.00;;
14799;SDS011;7491;57.750;11.970;2023-05-29T13:48:01;1.55;;;1.15;;
14799;SDS011;7491;57.750;11.970;2023-05-29T13:50:29;1.85;;;1.10;;
14799;SDS011;7491;57.750;11.970;2023-05-29T13:52:55;2.15;;;0.90;;
14799;SDS011;7491;57.750;11.970;2023-05-29T13:55:23;1.98;;;1.10;;
14799;SDS011;7491;57.750;11.970;2023-05-29T13:57:50;0.90;;;0.80;;
14799;SDS011;7491;57.750;11.970;2023-05-29T14:00:18;1.58;;;0.93;;
14799;SDS011;7491;57.750;11.970;2023-05-29T14:02:47;1.00;;;0.85;;
14799;SDS011;7491;57.750;11.970;2023-05-29T14:05:15;1.13;;;0.80;;
14799;SDS011;7491;57.750;11.970;2023-05-29T14:07:43;1.25;;;0.95;;
14799;SDS011;7491;57.750;11.970;2023-05-29T14:10:10;1.13;;;1.02;;
14799;SDS011;7491;57.750;11.970;2023-05-29T14:12:37;2.35;;;0.98;;
14799;SDS011;7491;57.750;11.970;2023-05-29T14:15:07;1.42;;;1.13;;
14799;SDS011;7491;57.750;11.970;2023-05-29T14:17:35;1.95;;;1.00;;
14799;SDS011;7491;57.750;11.970;2023-05-29T14:20:03;1.77;;;0.98;;
14799;SDS011;7491;57.750;11.970;2023-05-29T14:22:33;1.92;;;0.98;;
14799;SDS011;7491;57.750;11.970;2023-05-29T14:25:02;2.97;;;0.90;;
14799;SDS011;7491;57.750;11.970;2023-05-29T14:27:30;1.45;;;1.10;;
14799;SDS011;7491;57.750;11.970;2023-05-29T14:29:56;1.13;;;0.90;;
14799;SDS011;7491;57.750;11.970;2023-05-29T14:32:23;3.03;;;1.02;;
14799;SDS011;7491;57.750;11.970;2023-05-29T14:34:50;2.67;;;0.80;;
14799;SDS011;7491;57.750;11.970;2023-05-29T14:37:19;3.92;;;0.90;;
14799;SDS011;7491;57.750;11.970;2023-05-29T14:39:46;2.50;;;1.30;;
14799;SDS011;7491;57.750;11.970;2023-05-29T14:42:12;1.67;;;1.30;;
14799;SDS011;7491;57.750;11.970;2023-05-29T14:44:40;1.60;;;1.00;;
14799;SDS011;7491;57.750;11.970;2023-05-29T14:47:08;1.52;;;1.02;;
14799;SDS011;7491;57.750;11.970;2023-05-29T14:49:35;3.03;;;1.08;;
14799;SDS011;7491;57.750;11.970;2023-05-29T14:52:03;5.95;;;1.30;;
14799;SDS011;7491;57.750;11.970;2023-05-29T14:54:32;1.38;;;1.00;;
14799;SDS011;7491;57.750;11.970;2023-05-29T14:56:59;3.00;;;1.35;;
14799;SDS011;7491;57.750;11.970;2023-05-29T14:59:27;2.65;;;1.17;;
14799;SDS011;7491;57.750;11.970;2023-05-29T15:01:53;1.92;;;1.00;;
14799;SDS011;7491;57.750;11.970;2023-05-29T15:04:22;3.35;;;1.23;;
14799;SDS011;7491;57.750;11.970;2023-05-29T15:06:48;1.55;;;1.20;;
14799;SDS011;7491;57.750;11.970;2023-05-29T15:09:15;3.47;;;1.20;;
14799;SDS011;7491;57.750;11.970;2023-05-29T15:11:43;2.60;;;1.00;;
14799;SDS011;7491;57.750;11.970;2023-05-29T15:14:10;2.08;;;1.10;;
14799;SDS011;7491;57.750;11.970;2023-05-29T15:16:37;3.67;;;1.20;;
14799;SDS011;7491;57.750;11.970;2023-05-29T15:19:04;3.50;;;2.03;;
14799;SDS011;7491;57.750;11.970;2023-05-29T15:21:31;2.10;;;1.17;;
14799;SDS011;7491;57.750;11.970;2023-05-29T15:24:00;3.45;;;1.48;;
14799;SDS011;7491;57.750;11.970;2023-05-29T15:26:31;2.90;;;1.35;;
14799;SDS011;7491;57.750;11.970;2023-05-29T15:29:01;2.80;;;1.30;;
14799;SDS011;7491;57.750;11.970;2023-05-29T15:31:29;3.22;;;1.23;;
14799;SDS011;7491;57.750;11.970;2023-05-29T15:33:56;1.65;;;1.25;;
14799;SDS011;7491;57.750;11.970;2023-05-29T15:36:23;4.70;;;1.33;;
14799;SDS011;7491;57.750;11.970;2023-05-29T15:38:52;2.58;;;1.20;;
14799;SDS011;7491;57.750;11.970;2023-05-29T15:41:24;4.15;;;1.33;;
14799;SDS011;7491;57.750;11.970;2023-05-29T15:43:53;3.33;;;1.35;;
14799;SDS011;7491;57.750;11.970;2023-05-29T15:46:22;5.00;;;1.77;;
14799;SDS011;7491;57.750;11.970;2023-05-29T15:48:52;6.22;;;1.83;;
14799;SDS011;7491;57.750;11.970;2023-05-29T15:51:19;4.82;;;1.45;;
14799;SDS011;7491;57.750;11.970;2023-05-29T15:53:45;5.25;;;1.45;;
14799;SDS011;7491;57.750;11.970;2023-05-29T15:56:12;6.78;;;1.40;;
14799;SDS011;7491;57.750;11.970;2023-05-29T15:58:39;6.50;;;2.22;;
14799;SDS011;7491;57.750;11.970;2023-05-29T16:01:06;6.32;;;2.08;;
14799;SDS011;7491;57.750;11.970;2023-05-29T16:03:34;2.80;;;1.90;;
14799;SDS011;7491;57.750;11.970;2023-05-29T16:06:01;3.45;;;1.60;;
14799;SDS011;7491;57.750;11.970;2023-05-29T16:08:28;2.72;;;1.73;;
14799;SDS011;7491;57.750;11.970;2023-05-29T16:10:55;2.17;;;1.23;;
14799;SDS011;7491;57.750;11.970;2023-05-29T16:13:26;4.80;;;1.73;;
14799;SDS011;7491;57.750;11.970;2023-05-29T16:15:55;3.83;;;1.45;;
14799;SDS011;7491;57.750;11.970;2023-05-29T16:18:24;4.03;;;1.48;;
14799;SDS011;7491;57.750;11.970;2023-05-29T16:20:55;3.95;;;1.92;;
14799;SDS011;7491;57.750;11.970;2023-05-29T16:23:25;6.53;;;1.73;;
14799;SDS011;7491;57.750;11.970;2023-05-29T16:25:52;2.97;;;1.45;;
14799;SDS011;7491;57.750;11.970;2023-05-29T16:28:18;5.47;;;1.88;;
14799;SDS011;7491;57.750;11.970;2023-05-29T16:30:45;9.40;;;2.25;;
14799;SDS011;7491;57.750;11.970;2023-05-29T16:33:12;4.45;;;2.17;;
14799;SDS011;7491;57.750;11.970;2023-05-29T16:35:40;7.05;;;1.80;;